sensor_id;sensor_type;location;lat;lon;timestamp;temperature;humidity
30308;DHT22;17114;52.314;8.910;2023-06-22T00:00:01;18.50;99.90
30308;DHT22;17114;52.314;8.910;2023-06-22T00:02:35;18.50;99.90
30308;DHT22;17114;52.314;8.910;2023-06-22T00:05:02;18.60;99.90
30308;DHT22;17114;52.314;8.910;2023-06-22T00:07:29;18.30;99.90
30308;DHT22;17114;52.314;8.910;2023-06-22T00:09:55;18.60;99.90
30308;DHT22;17114;52.314;8.910;2023-06-22T00:12:22;18.60;99.90
30308;DHT22;17114;52.314;8.910;2023-06-22T00:14:49;18.60;99.90
30308;DHT22;17114;52.314;8.910;2023-06-22T00:17:16;18.60;99.90
30308;DHT22;17114;52.314;8.910;2023-06-22T00:19:43;18.60;99.90
30308;DHT22;17114;52.314;8.910;2023-06-22T00:22:10;18.60;99.90
30308;DHT22;17114;52.314;8.910;2023-06-22T00:24:37;18.60;99.90
30308;DHT22;17114;52.314;8.910;2023-06-22T00:27:04;18.60;99.90
30308;DHT22;17114;52.314;8.910;2023-06-22T00:29:32;18.60;99.90
30308;DHT22;17114;52.314;8.910;2023-06-22T00:31:59;18.60;99.90
30308;DHT22;17114;52.314;8.910;2023-06-22T00:34:26;18.60;99.90
30308;DHT22;17114;52.314;8.910;2023-06-22T00:36:53;18.50;99.90
30308;DHT22;17114;52.314;8.910;2023-06-22T00:39:19;18.40;99.90
30308;DHT22;17114;52.314;8.910;2023-06-22T00:41:46;18.50;99.90
30308;DHT22;17114;52.314;8.910;2023-06-22T00:44:13;18.40;99.90
30308;DHT22;17114;52.314;8.910;2023-06-22T00:46:40;18.40;99.90
30308;DHT22;17114;52.314;8.910;2023-06-22T00:49:07;18.40;99.90
30308;DHT22;17114;52.314;8.910;2023-06-22T00:51:34;18.30;99.90
30308;DHT22;17114;52.314;8.910;2023-06-22T00:54:05;18.30;99.90
30308;DHT22;17114;52.314;8.910;2023-06-22T00:56:32;18.30;99.90
30308;DHT22;17114;52.314;8.910;2023-06-22T00:59:00;18.20;99.90
30308;DHT22;17114;52.314;8.910;2023-06-22T01:01:30;18.20;99.90
30308;DHT22;17114;52.314;8.910;2023-06-22T01:03:57;18.20;99.90
30308;DHT22;17114;52.314;8.910;2023-06-22T01:06:29;18.20;99.90
30308;DHT22;17114;52.314;8.910;2023-06-22T01:09:06;18.10;99.90
30308;DHT22;17114;52.314;8.910;2023-06-22T01:11:39;18.10;99.90
30308;DHT22;17114;52.314;8.910;2023-06-22T01:14:28;18.00;99.90
30308;DHT22;17114;52.314;8.910;2023-06-22T01:17:00;17.80;99.90
30308;DHT22;17114;52.314;8.910;2023-06-22T01:19:46;17.70;99.90
30308;DHT22;17114;52.314;8.910;2023-06-22T01:22:17;17.70;99.90
30308;DHT22;17114;52.314;8.910;2023-06-22T01:27:31;17.70;99.90
30308;DHT22;17114;52.314;8.910;2023-06-22T01:30:02;17.70;99.90
30308;DHT22;17114;52.314;8.910;2023-06-22T01:32:34;17.70;99.90
30308;DHT22;17114;52.314;8.910;2023-06-22T01:35:04;17.70;99.90
30308;DHT22;17114;52.314;8.910;2023-06-22T01:37:33;17.70;99.90
30308;DHT22;17114;52.314;8.910;2023-06-22T01:40:02;17.60;99.90
30308;DHT22;17114;52.314;8.910;2023-06-22T01:42:31;17.70;99.90
30308;DHT22;17114;52.314;8.910;2023-06-22T01:44:59;17.70;99.90
30308;DHT22;17114;52.314;8.910;2023-06-22T01:47:26;17.70;99.90
30308;DHT22;17114;52.314;8.910;2023-06-22T01:49:54;17.70;99.90
30308;DHT22;17114;52.314;8.910;2023-06-22T01:52:21;17.70;99.90
30308;DHT22;17114;52.314;8.910;2023-06-22T01:54:48;17.60;99.90
30308;DHT22;17114;52.314;8.910;2023-06-22T01:57:16;17.60;99.90
30308;DHT22;17114;52.314;8.910;2023-06-22T01:59:51;17.50;99.90
30308;DHT22;17114;52.314;8.910;2023-06-22T02:02:20;17.40;99.90
30308;DHT22;17114;52.314;8.910;2023-06-22T02:04:59;17.30;99.90
30308;DHT22;17114;52.314;8.910;2023-06-22T02:07:34;17.20;99.90
30308;DHT22;17114;52.314;8.910;2023-06-22T02:10:06;17.20;99.90
30308;DHT22;17114;52.314;8.910;2023-06-22T02:12:37;17.20;99.90
30308;DHT22;17114;52.314;8.910;2023-06-22T02:15:06;17.20;99.90
30308;DHT22;17114;52.314;8.910;2023-06-22T02:17:33;17.20;99.90
30308;DHT22;17114;52.314;8.910;2023-06-22T02:20:02;17.20;99.90
30308;DHT22;17114;52.314;8.910;2023-06-22T02:22:32;17.10;99.90
30308;DHT22;17114;52.314;8.910;2023-06-22T02:24:59;17.10;99.90
30308;DHT22;17114;52.314;8.910;2023-06-22T02:27:26;17.10;99.90
30308;DHT22;17114;52.314;8.910;2023-06-22T02:29:53;17.10;99.90
30308;DHT22;17114;52.314;8.910;2023-06-22T02:32:20;17.10;99.90
30308;DHT22;17114;52.314;8.910;2023-06-22T02:34:47;17.10;99.90
30308;DHT22;17114;52.314;8.910;2023-06-22T02:37:14;17.00;99.90
30308;DHT22;17114;52.314;8.910;2023-06-22T02:39:41;17.10;99.90
30308;DHT22;17114;52.314;8.910;2023-06-22T02:42:08;17.10;99.90
30308;DHT22;17114;52.314;8.910;2023-06-22T02:44:37;17.10;99.90
30308;DHT22;17114;52.314;8.910;2023-06-22T02:47:04;17.00;99.90
30308;DHT22;17114;52.314;8.910;2023-06-22T02:49:34;17.10;99.90
30308;DHT22;17114;52.314;8.910;2023-06-22T02:52:01;17.10;99.90
30308;DHT22;17114;52.314;8.910;2023-06-22T02:54:28;17.00;99.90
30308;DHT22;17114;52.314;8.910;2023-06-22T02:56:55;17.00;99.90
30308;DHT22;17114;52.314;8.910;2023-06-22T02:59:22;16.90;99.90
30308;DHT22;17114;52.314;8.910;2023-06-22T03:01:50;16.90;99.90
30308;DHT22;17114;52.314;8.910;2023-06-22T03:04:18;16.90;99.90
30308;DHT22;17114;52.314;8.910;2023-06-22T03:06:44;16.90;99.90
30308;DHT22;17114;52.314;8.910;2023-06-22T03:09:17;16.90;99.90
30308;DHT22;17114;52.314;8.910;2023-06-22T03:11:44;16.90;99.90
30308;DHT22;17114;52.314;8.910;2023-06-22T03:14:11;16.90;99.90
30308;DHT22;17114;52.314;8.910;2023-06-22T03:16:37;16.80;99.90
30308;DHT22;17114;52.314;8.910;2023-06-22T03:19:04;16.80;99.90
30308;DHT22;17114;52.314;8.910;2023-06-22T03:21:31;16.80;99.90
30308;DHT22;17114;52.314;8.910;2023-06-22T03:23:58;16.80;99.90
30308;DHT22;17114;52.314;8.910;2023-06-22T03:26:25;16.80;99.90
30308;DHT22;17114;52.314;8.910;2023-06-22T03:28:53;16.80;99.90
30308;DHT22;17114;52.314;8.910;2023-06-22T03:31:20;16.70;99.90
30308;DHT22;17114;52.314;8.910;2023-06-22T03:33:49;16.80;99.90
30308;DHT22;17114;52.314;8.910;2023-06-22T03:36:17;16.80;99.90
30308;DHT22;17114;52.314;8.910;2023-06-22T03:38:48;16.80;99.90
30308;DHT22;17114;52.314;8.910;2023-06-22T03:41:15;16.70;99.90
30308;DHT22;17114;52.314;8.910;2023-06-22T03:43:45;16.80;99.90
30308;DHT22;17114;52.314;8.910;2023-06-22T03:46:12;16.80;99.90
30308;DHT22;17114;52.314;8.910;2023-06-22T03:48:39;16.70;99.90
30308;DHT22;17114;52.314;8.910;2023-06-22T03:51:06;16.70;99.90
30308;DHT22;17114;52.314;8.910;2023-06-22T03:53:32;16.70;99.90
30308;DHT22;17114;52.314;8.910;2023-06-22T03:55:59;16.70;99.90
30308;DHT22;17114;52.314;8.910;2023-06-22T03:58:26;16.80;99.90
30308;DHT22;17114;52.314;8.910;2023-06-22T04:00:54;16.90;99.90
30308;DHT22;17114;52.314;8.910;2023-06-22T04:03:21;17.00;99.90
30308;DHT22;17114;52.314;8.910;2023-06-22T04:05:48;17.10;99.90
30308;DHT22;17114;52.314;8.910;2023-06-22T04:08:15;17.10;99.90
30308;DHT22;17114;52.314;8.910;2023-06-22T04:10:43;17.10;99.90
30308;DHT22;17114;52.314;8.910;2023-06-22T04:13:09;17.00;99.90
30308;DHT22;17114;52.314;8.910;2023-06-22T04:15:37;17.10;99.90
30308;DHT22;17114;52.314;8.910;2023-06-22T04:18:03;17.20;99.90
30308;DHT22;17114;52.314;8.910;2023-06-22T04:20:31;17.20;99.90
30308;DHT22;17114;52.314;8.910;2023-06-22T04:22:59;17.30;99.90
30308;DHT22;17114;52.314;8.910;2023-06-22T04:25:26;17.40;99.90
30308;DHT22;17114;52.314;8.910;2023-06-22T04:27:53;17.40;99.90
30308;DHT22;17114;52.314;8.910;2023-06-22T04:30:19;17.50;99.90
30308;DHT22;17114;52.314;8.910;2023-06-22T04:32:46;17.40;99.90
30308;DHT22;17114;52.314;8.910;2023-06-22T04:35:24;17.50;99.90
30308;DHT22;17114;52.314;8.910;2023-06-22T04:37:52;17.60;99.90
30308;DHT22;17114;52.314;8.910;2023-06-22T04:40:22;17.60;99.90
30308;DHT22;17114;52.314;8.910;2023-06-22T04:42:49;17.70;99.90
30308;DHT22;17114;52.314;8.910;2023-06-22T04:45:20;17.70;99.90
30308;DHT22;17114;52.314;8.910;2023-06-22T04:47:47;17.80;99.90
30308;DHT22;17114;52.314;8.910;2023-06-22T04:50:14;18.00;99.90
30308;DHT22;17114;52.314;8.910;2023-06-22T04:52:41;18.10;99.90
30308;DHT22;17114;52.314;8.910;2023-06-22T04:55:08;18.50;99.90
30308;DHT22;17114;52.314;8.910;2023-06-22T04:57:35;18.90;99.90
30308;DHT22;17114;52.314;8.910;2023-06-22T05:00:06;19.30;99.90
30308;DHT22;17114;52.314;8.910;2023-06-22T05:02:39;19.70;99.90
30308;DHT22;17114;52.314;8.910;2023-06-22T05:05:08;19.90;99.90
30308;DHT22;17114;52.314;8.910;2023-06-22T05:07:35;20.20;99.90
30308;DHT22;17114;52.314;8.910;2023-06-22T05:10:03;20.50;99.90
30308;DHT22;17114;52.314;8.910;2023-06-22T05:12:30;20.80;99.90
30308;DHT22;17114;52.314;8.910;2023-06-22T05:14:57;21.00;99.90
30308;DHT22;17114;52.314;8.910;2023-06-22T05:17:25;20.90;99.90
30308;DHT22;17114;52.314;8.910;2023-06-22T05:19:52;20.90;99.90
30308;DHT22;17114;52.314;8.910;2023-06-22T05:22:19;20.90;99.90
30308;DHT22;17114;52.314;8.910;2023-06-22T05:24:46;20.90;99.90
30308;DHT22;17114;52.314;8.910;2023-06-22T05:27:14;21.30;99.90
30308;DHT22;17114;52.314;8.910;2023-06-22T05:29:41;21.80;99.90
30308;DHT22;17114;52.314;8.910;2023-06-22T05:32:09;22.40;99.90
30308;DHT22;17114;52.314;8.910;2023-06-22T05:34:37;23.00;99.90
30308;DHT22;17114;52.314;8.910;2023-06-22T05:37:04;23.60;99.90
30308;DHT22;17114;52.314;8.910;2023-06-22T05:39:31;24.00;99.90
30308;DHT22;17114;52.314;8.910;2023-06-22T05:41:58;24.40;99.90
30308;DHT22;17114;52.314;8.910;2023-06-22T05:44:25;24.60;99.90
30308;DHT22;17114;52.314;8.910;2023-06-22T05:46:52;24.40;99.90
30308;DHT22;17114;52.314;8.910;2023-06-22T05:49:19;24.00;99.90
30308;DHT22;17114;52.314;8.910;2023-06-22T05:51:45;23.50;99.90
30308;DHT22;17114;52.314;8.910;2023-06-22T05:54:15;23.30;99.90
30308;DHT22;17114;52.314;8.910;2023-06-22T05:56:44;23.30;99.90
30308;DHT22;17114;52.314;8.910;2023-06-22T05:59:11;23.40;99.90
30308;DHT22;17114;52.314;8.910;2023-06-22T06:01:39;23.40;99.90
30308;DHT22;17114;52.314;8.910;2023-06-22T06:04:09;23.40;99.90
30308;DHT22;17114;52.314;8.910;2023-06-22T06:06:36;23.40;99.90
30308;DHT22;17114;52.314;8.910;2023-06-22T06:09:04;23.40;99.90
30308;DHT22;17114;52.314;8.910;2023-06-22T06:11:31;23.40;99.90
30308;DHT22;17114;52.314;8.910;2023-06-22T06:13:59;23.60;99.90
30308;DHT22;17114;52.314;8.910;2023-06-22T06:16:26;23.80;99.90
30308;DHT22;17114;52.314;8.910;2023-06-22T06:18:53;24.30;99.90
30308;DHT22;17114;52.314;8.910;2023-06-22T06:21:22;24.80;99.90
30308;DHT22;17114;52.314;8.910;2023-06-22T06:23:52;25.20;99.90
30308;DHT22;17114;52.314;8.910;2023-06-22T06:26:20;25.60;99.90
30308;DHT22;17114;52.314;8.910;2023-06-22T06:28:55;25.90;99.90
30308;DHT22;17114;52.314;8.910;2023-06-22T06:31:22;26.50;99.90
30308;DHT22;17114;52.314;8.910;2023-06-22T06:33:50;26.90;99.90
30308;DHT22;17114;52.314;8.910;2023-06-22T06:36:17;27.50;99.90
30308;DHT22;17114;52.314;8.910;2023-06-22T06:38:44;27.70;99.90
30308;DHT22;17114;52.314;8.910;2023-06-22T06:41:16;27.70;99.90
30308;DHT22;17114;52.314;8.910;2023-06-22T06:43:43;28.00;99.90
30308;DHT22;17114;52.314;8.910;2023-06-22T06:46:10;28.30;99.90
30308;DHT22;17114;52.314;8.910;2023-06-22T06:48:37;28.40;99.90
30308;DHT22;17114;52.314;8.910;2023-06-22T06:51:04;28.50;99.90
30308;DHT22;17114;52.314;8.910;2023-06-22T06:53:31;28.50;99.90
30308;DHT22;17114;52.314;8.910;2023-06-22T06:55:58;28.00;99.90
30308;DHT22;17114;52.314;8.910;2023-06-22T06:58:28;27.30;99.90
30308;DHT22;17114;52.314;8.910;2023-06-22T07:00:55;27.00;99.90
30308;DHT22;17114;52.314;8.910;2023-06-22T07:03:22;26.90;99.90
30308;DHT22;17114;52.314;8.910;2023-06-22T07:05:49;27.00;99.90
30308;DHT22;17114;52.314;8.910;2023-06-22T07:08:16;27.40;99.90
30308;DHT22;17114;52.314;8.910;2023-06-22T07:10:43;27.90;99.90
30308;DHT22;17114;52.314;8.910;2023-06-22T07:13:10;27.70;99.90
30308;DHT22;17114;52.314;8.910;2023-06-22T07:15:38;27.70;99.90
30308;DHT22;17114;52.314;8.910;2023-06-22T07:18:05;28.00;99.90
30308;DHT22;17114;52.314;8.910;2023-06-22T07:20:32;28.40;99.90
30308;DHT22;17114;52.314;8.910;2023-06-22T07:23:01;28.30;99.90
30308;DHT22;17114;52.314;8.910;2023-06-22T07:25:28;28.00;99.90
30308;DHT22;17114;52.314;8.910;2023-06-22T07:28:03;27.50;99.90
30308;DHT22;17114;52.314;8.910;2023-06-22T07:30:32;27.00;99.90
30308;DHT22;17114;52.314;8.910;2023-06-22T07:33:01;26.50;99.90
30308;DHT22;17114;52.314;8.910;2023-06-22T07:35:30;26.30;99.90
30308;DHT22;17114;52.314;8.910;2023-06-22T07:37:57;26.30;99.90
30308;DHT22;17114;52.314;8.910;2023-06-22T07:40:24;26.10;99.90
30308;DHT22;17114;52.314;8.910;2023-06-22T07:42:51;25.80;99.90
30308;DHT22;17114;52.314;8.910;2023-06-22T07:45:19;25.60;99.90
30308;DHT22;17114;52.314;8.910;2023-06-22T07:47:45;25.50;99.90
30308;DHT22;17114;52.314;8.910;2023-06-22T07:50:12;25.30;99.90
30308;DHT22;17114;52.314;8.910;2023-06-22T07:52:39;25.00;99.90
30308;DHT22;17114;52.314;8.910;2023-06-22T07:55:06;25.00;99.90
30308;DHT22;17114;52.314;8.910;2023-06-22T07:57:33;25.10;99.90
30308;DHT22;17114;52.314;8.910;2023-06-22T08:00:03;25.20;99.90
30308;DHT22;17114;52.314;8.910;2023-06-22T08:02:35;25.30;99.90
30308;DHT22;17114;52.314;8.910;2023-06-22T08:05:02;25.30;99.90
30308;DHT22;17114;52.314;8.910;2023-06-22T08:07:47;25.40;99.90
30308;DHT22;17114;52.314;8.910;2023-06-22T08:10:15;25.30;99.90
30308;DHT22;17114;52.314;8.910;2023-06-22T08:12:42;25.20;99.90
30308;DHT22;17114;52.314;8.910;2023-06-22T08:15:09;25.10;99.90
30308;DHT22;17114;52.314;8.910;2023-06-22T08:17:38;24.90;99.90
30308;DHT22;17114;52.314;8.910;2023-06-22T08:20:06;24.70;99.90
30308;DHT22;17114;52.314;8.910;2023-06-22T08:22:42;24.60;99.90
30308;DHT22;17114;52.314;8.910;2023-06-22T08:25:11;24.60;99.90
30308;DHT22;17114;52.314;8.910;2023-06-22T08:27:38;24.60;99.90
30308;DHT22;17114;52.314;8.910;2023-06-22T08:30:06;24.50;99.90
30308;DHT22;17114;52.314;8.910;2023-06-22T08:32:34;24.50;99.90
30308;DHT22;17114;52.314;8.910;2023-06-22T08:35:01;24.40;99.90
30308;DHT22;17114;52.314;8.910;2023-06-22T08:37:29;24.50;99.90
30308;DHT22;17114;52.314;8.910;2023-06-22T08:40:06;24.60;99.90
30308;DHT22;17114;52.314;8.910;2023-06-22T08:42:37;24.60;99.90
30308;DHT22;17114;52.314;8.910;2023-06-22T08:45:06;24.70;99.90
30308;DHT22;17114;52.314;8.910;2023-06-22T08:47:33;24.80;99.90
30308;DHT22;17114;52.314;8.910;2023-06-22T08:50:00;24.90;99.90
30308;DHT22;17114;52.314;8.910;2023-06-22T08:52:30;25.00;99.90
30308;DHT22;17114;52.314;8.910;2023-06-22T08:54:57;24.90;99.90
30308;DHT22;17114;52.314;8.910;2023-06-22T08:57:25;24.90;99.90
30308;DHT22;17114;52.314;8.910;2023-06-22T08:59:52;25.00;99.90
30308;DHT22;17114;52.314;8.910;2023-06-22T09:02:20;25.10;99.90
30308;DHT22;17114;52.314;8.910;2023-06-22T09:04:47;25.10;99.90
30308;DHT22;17114;52.314;8.910;2023-06-22T09:07:16;25.20;99.90
30308;DHT22;17114;52.314;8.910;2023-06-22T09:09:49;25.30;99.90
30308;DHT22;17114;52.314;8.910;2023-06-22T09:12:17;25.20;99.90
30308;DHT22;17114;52.314;8.910;2023-06-22T09:14:47;25.30;99.90
30308;DHT22;17114;52.314;8.910;2023-06-22T09:17:14;25.40;99.90
30308;DHT22;17114;52.314;8.910;2023-06-22T09:19:41;25.40;99.90
30308;DHT22;17114;52.314;8.910;2023-06-22T09:22:09;25.60;99.90
30308;DHT22;17114;52.314;8.910;2023-06-22T09:24:37;25.80;99.90
30308;DHT22;17114;52.314;8.910;2023-06-22T09:27:04;25.90;99.90
30308;DHT22;17114;52.314;8.910;2023-06-22T09:29:31;26.20;99.90
30308;DHT22;17114;52.314;8.910;2023-06-22T09:32:00;26.30;99.90
30308;DHT22;17114;52.314;8.910;2023-06-22T09:34:28;26.40;99.90
30308;DHT22;17114;52.314;8.910;2023-06-22T09:36:55;26.50;99.90
30308;DHT22;17114;52.314;8.910;2023-06-22T09:39:23;26.70;99.90
30308;DHT22;17114;52.314;8.910;2023-06-22T09:41:50;26.80;99.90
30308;DHT22;17114;52.314;8.910;2023-06-22T09:44:18;26.80;99.90
30308;DHT22;17114;52.314;8.910;2023-06-22T09:46:44;26.90;99.90
30308;DHT22;17114;52.314;8.910;2023-06-22T09:49:11;27.10;99.90
30308;DHT22;17114;52.314;8.910;2023-06-22T09:51:38;27.30;99.90
30308;DHT22;17114;52.314;8.910;2023-06-22T09:54:05;27.40;99.90
30308;DHT22;17114;52.314;8.910;2023-06-22T09:56:32;27.40;99.90
30308;DHT22;17114;52.314;8.910;2023-06-22T09:58:59;27.50;99.90
30308;DHT22;17114;52.314;8.910;2023-06-22T10:01:43;27.50;99.90
30308;DHT22;17114;52.314;8.910;2023-06-22T10:04:10;27.40;99.90
30308;DHT22;17114;52.314;8.910;2023-06-22T10:06:37;27.40;99.90
30308;DHT22;17114;52.314;8.910;2023-06-22T10:09:07;27.50;99.90
30308;DHT22;17114;52.314;8.910;2023-06-22T10:11:34;27.90;99.90
30308;DHT22;17114;52.314;8.910;2023-06-22T10:14:02;28.00;99.90
30308;DHT22;17114;52.314;8.910;2023-06-22T10:16:31;28.10;99.90
30308;DHT22;17114;52.314;8.910;2023-06-22T10:18:59;28.00;99.90
30308;DHT22;17114;52.314;8.910;2023-06-22T10:21:26;28.00;99.90
30308;DHT22;17114;52.314;8.910;2023-06-22T10:23:55;28.10;99.90
30308;DHT22;17114;52.314;8.910;2023-06-22T10:26:22;28.40;99.90
30308;DHT22;17114;52.314;8.910;2023-06-22T10:28:50;28.50;99.90
30308;DHT22;17114;52.314;8.910;2023-06-22T10:31:26;28.60;99.90
30308;DHT22;17114;52.314;8.910;2023-06-22T10:33:55;28.60;99.90
30308;DHT22;17114;52.314;8.910;2023-06-22T10:36:22;28.60;99.90
30308;DHT22;17114;52.314;8.910;2023-06-22T10:38:49;28.60;99.90
30308;DHT22;17114;52.314;8.910;2023-06-22T10:41:16;28.40;99.90
30308;DHT22;17114;52.314;8.910;2023-06-22T10:43:43;28.30;99.90
30308;DHT22;17114;52.314;8.910;2023-06-22T10:46:10;28.20;99.90
30308;DHT22;17114;52.314;8.910;2023-06-22T10:48:37;28.20;99.90
30308;DHT22;17114;52.314;8.910;2023-06-22T10:51:04;28.20;99.90
30308;DHT22;17114;52.314;8.910;2023-06-22T10:53:31;28.40;99.90
30308;DHT22;17114;52.314;8.910;2023-06-22T10:55:58;28.70;99.90
30308;DHT22;17114;52.314;8.910;2023-06-22T10:58:25;28.90;99.90
30308;DHT22;17114;52.314;8.910;2023-06-22T11:00:53;28.80;99.90
30308;DHT22;17114;52.314;8.910;2023-06-22T11:03:20;29.00;99.90
30308;DHT22;17114;52.314;8.910;2023-06-22T11:05:47;28.90;99.90
30308;DHT22;17114;52.314;8.910;2023-06-22T11:08:14;29.00;99.90
30308;DHT22;17114;52.314;8.910;2023-06-22T11:10:42;29.10;99.90
30308;DHT22;17114;52.314;8.910;2023-06-22T11:13:09;29.00;99.90
30308;DHT22;17114;52.314;8.910;2023-06-22T11:15:39;28.80;99.90
30308;DHT22;17114;52.314;8.910;2023-06-22T11:18:05;28.70;99.90
30308;DHT22;17114;52.314;8.910;2023-06-22T11:20:34;28.80;99.90
30308;DHT22;17114;52.314;8.910;2023-06-22T11:23:05;28.90;99.90
30308;DHT22;17114;52.314;8.910;2023-06-22T11:25:35;28.90;99.90
30308;DHT22;17114;52.314;8.910;2023-06-22T11:28:03;28.80;99.90
30308;DHT22;17114;52.314;8.910;2023-06-22T11:30:30;28.90;99.90
30308;DHT22;17114;52.314;8.910;2023-06-22T11:32:59;28.70;99.90
30308;DHT22;17114;52.314;8.910;2023-06-22T11:35:26;28.60;99.90
30308;DHT22;17114;52.314;8.910;2023-06-22T11:37:53;28.60;99.90
30308;DHT22;17114;52.314;8.910;2023-06-22T11:40:19;28.60;99.90
30308;DHT22;17114;52.314;8.910;2023-06-22T11:42:46;28.90;99.90
30308;DHT22;17114;52.314;8.910;2023-06-22T11:45:13;29.50;99.90
30308;DHT22;17114;52.314;8.910;2023-06-22T11:47:40;30.20;99.90
30308;DHT22;17114;52.314;8.910;2023-06-22T11:50:07;30.50;99.90
30308;DHT22;17114;52.314;8.910;2023-06-22T11:52:35;30.50;99.90
30308;DHT22;17114;52.314;8.910;2023-06-22T11:55:05;30.50;99.90
30308;DHT22;17114;52.314;8.910;2023-06-22T11:57:34;30.40;99.90
30308;DHT22;17114;52.314;8.910;2023-06-22T12:00:02;30.30;99.90
30308;DHT22;17114;52.314;8.910;2023-06-22T12:02:32;30.00;99.90
30308;DHT22;17114;52.314;8.910;2023-06-22T12:04:59;29.70;99.90
30308;DHT22;17114;52.314;8.910;2023-06-22T12:07:26;29.60;99.90
30308;DHT22;17114;52.314;8.910;2023-06-22T12:09:53;29.50;99.90
30308;DHT22;17114;52.314;8.910;2023-06-22T12:12:20;29.40;99.90
30308;DHT22;17114;52.314;8.910;2023-06-22T12:14:47;29.30;99.90
30308;DHT22;17114;52.314;8.910;2023-06-22T12:17:14;29.20;99.90
30308;DHT22;17114;52.314;8.910;2023-06-22T12:19:40;29.30;99.90
30308;DHT22;17114;52.314;8.910;2023-06-22T12:22:07;29.50;99.90
30308;DHT22;17114;52.314;8.910;2023-06-22T12:24:34;29.50;99.90
30308;DHT22;17114;52.314;8.910;2023-06-22T12:27:01;29.40;99.90
30308;DHT22;17114;52.314;8.910;2023-06-22T12:29:30;29.30;99.90
30308;DHT22;17114;52.314;8.910;2023-06-22T12:31:56;29.00;99.90
30308;DHT22;17114;52.314;8.910;2023-06-22T12:34:23;28.80;99.90
30308;DHT22;17114;52.314;8.910;2023-06-22T12:36:50;28.60;99.90
30308;DHT22;17114;52.314;8.910;2023-06-22T12:39:17;28.50;99.90
30308;DHT22;17114;52.314;8.910;2023-06-22T12:41:44;28.50;99.90
30308;DHT22;17114;52.314;8.910;2023-06-22T12:44:11;28.50;99.90
30308;DHT22;17114;52.314;8.910;2023-06-22T12:46:38;28.40;99.90
30308;DHT22;17114;52.314;8.910;2023-06-22T12:49:05;28.40;99.90
30308;DHT22;17114;52.314;8.910;2023-06-22T12:51:31;28.40;99.90
30308;DHT22;17114;52.314;8.910;2023-06-22T12:53:58;28.40;99.90
30308;DHT22;17114;52.314;8.910;2023-06-22T12:56:25;28.50;99.90
30308;DHT22;17114;52.314;8.910;2023-06-22T12:58:52;28.50;99.90
30308;DHT22;17114;52.314;8.910;2023-06-22T13:01:19;28.50;99.90
30308;DHT22;17114;52.314;8.910;2023-06-22T13:03:46;28.50;99.90
30308;DHT22;17114;52.314;8.910;2023-06-22T13:06:13;28.20;99.90
30308;DHT22;17114;52.314;8.910;2023-06-22T13:08:39;28.00;99.90
30308;DHT22;17114;52.314;8.910;2023-06-22T13:11:09;27.80;99.90
30308;DHT22;17114;52.314;8.910;2023-06-22T13:13:36;27.50;99.90
30308;DHT22;17114;52.314;8.910;2023-06-22T13:16:03;27.30;99.90
30308;DHT22;17114;52.314;8.910;2023-06-22T13:18:31;27.10;99.90
30308;DHT22;17114;52.314;8.910;2023-06-22T13:20:58;26.90;99.90
30308;DHT22;17114;52.314;8.910;2023-06-22T13:23:26;26.60;99.90
30308;DHT22;17114;52.314;8.910;2023-06-22T13:25:53;26.60;99.90
30308;DHT22;17114;52.314;8.910;2023-06-22T13:28:20;26.40;99.90
30308;DHT22;17114;52.314;8.910;2023-06-22T13:30:54;26.20;99.90
30308;DHT22;17114;52.314;8.910;2023-06-22T13:33:21;26.10;99.90
30308;DHT22;17114;52.314;8.910;2023-06-22T13:35:48;25.90;99.90
30308;DHT22;17114;52.314;8.910;2023-06-22T13:38:15;25.80;99.90
30308;DHT22;17114;52.314;8.910;2023-06-22T13:40:42;25.60;99.90
30308;DHT22;17114;52.314;8.910;2023-06-22T13:43:09;25.40;99.90
30308;DHT22;17114;52.314;8.910;2023-06-22T13:45:35;25.20;99.90
30308;DHT22;17114;52.314;8.910;2023-06-22T13:48:02;25.10;99.90
30308;DHT22;17114;52.314;8.910;2023-06-22T13:50:30;24.90;99.90
30308;DHT22;17114;52.314;8.910;2023-06-22T13:52:57;24.80;99.90
30308;DHT22;17114;52.314;8.910;2023-06-22T13:55:24;24.70;99.90
30308;DHT22;17114;52.314;8.910;2023-06-22T13:57:51;24.60;99.90
30308;DHT22;17114;52.314;8.910;2023-06-22T14:00:18;24.50;99.90
30308;DHT22;17114;52.314;8.910;2023-06-22T14:02:45;24.40;99.90
30308;DHT22;17114;52.314;8.910;2023-06-22T14:05:12;24.20;99.90
30308;DHT22;17114;52.314;8.910;2023-06-22T14:07:40;24.10;99.90
30308;DHT22;17114;52.314;8.910;2023-06-22T14:10:07;24.10;99.90
30308;DHT22;17114;52.314;8.910;2023-06-22T14:12:34;24.10;99.90
30308;DHT22;17114;52.314;8.910;2023-06-22T14:15:01;24.10;99.90
30308;DHT22;17114;52.314;8.910;2023-06-22T14:17:28;24.00;99.90
30308;DHT22;17114;52.314;8.910;2023-06-22T14:19:55;24.10;99.90
30308;DHT22;17114;52.314;8.910;2023-06-22T14:22:22;24.00;99.90
30308;DHT22;17114;52.314;8.910;2023-06-22T14:24:49;24.00;99.90
30308;DHT22;17114;52.314;8.910;2023-06-22T14:27:16;23.90;99.90
30308;DHT22;17114;52.314;8.910;2023-06-22T14:29:43;23.80;99.90
30308;DHT22;17114;52.314;8.910;2023-06-22T14:32:10;23.80;99.90
30308;DHT22;17114;52.314;8.910;2023-06-22T14:34:37;23.80;99.90
30308;DHT22;17114;52.314;8.910;2023-06-22T14:37:09;23.80;99.90
30308;DHT22;17114;52.314;8.910;2023-06-22T14:39:36;23.80;99.90
30308;DHT22;17114;52.314;8.910;2023-06-22T14:42:03;23.70;99.90
30308;DHT22;17114;52.314;8.910;2023-06-22T14:44:30;23.60;99.90
30308;DHT22;17114;52.314;8.910;2023-06-22T14:46:57;23.60;99.90
30308;DHT22;17114;52.314;8.910;2023-06-22T14:49:24;23.50;99.90
30308;DHT22;17114;52.314;8.910;2023-06-22T14:51:51;23.40;99.90
30308;DHT22;17114;52.314;8.910;2023-06-22T14:54:18;23.10;99.90
30308;DHT22;17114;52.314;8.910;2023-06-22T14:56:45;22.80;99.90
30308;DHT22;17114;52.314;8.910;2023-06-22T14:59:12;22.60;99.90
30308;DHT22;17114;52.314;8.910;2023-06-22T15:01:39;22.40;99.90
30308;DHT22;17114;52.314;8.910;2023-06-22T15:04:07;22.20;99.90
30308;DHT22;17114;52.314;8.910;2023-06-22T15:06:34;22.10;99.90
30308;DHT22;17114;52.314;8.910;2023-06-22T15:09:01;22.00;99.90
30308;DHT22;17114;52.314;8.910;2023-06-22T15:11:28;21.90;99.90
30308;DHT22;17114;52.314;8.910;2023-06-22T15:13:58;21.90;99.90
30308;DHT22;17114;52.314;8.910;2023-06-22T15:16:25;21.80;99.90
30308;DHT22;17114;52.314;8.910;2023-06-22T15:18:52;21.80;99.90
30308;DHT22;17114;52.314;8.910;2023-06-22T15:21:19;21.70;99.90
30308;DHT22;17114;52.314;8.910;2023-06-22T15:23:46;21.70;99.90
30308;DHT22;17114;52.314;8.910;2023-06-22T15:26:13;21.70;99.90
30308;DHT22;17114;52.314;8.910;2023-06-22T15:28:40;21.60;99.90
30308;DHT22;17114;52.314;8.910;2023-06-22T15:31:07;21.50;99.90
30308;DHT22;17114;52.314;8.910;2023-06-22T15:33:34;21.50;99.90
30308;DHT22;17114;52.314;8.910;2023-06-22T15:36:01;21.50;99.90